KLZZ

Lampasas Airport

Lampasas, Texas, USA
METAR KLZZ 212255Z AUTO 00000KT 10SM CLR 31/21 A3007 RMK AO2 LTG DSNT E SE AND NW T03060207
Observed Flight Rules
Aug-21 @ 22:55 UTC (50 minutes ago) Visual Flight Rules
Visibility Clouds
10 miles
  • Clear skies
Temperatures Readings
Current 31°C / 88°F
Dewpoint 21°C / 70°F
Humidity 55%
Altimeter 30.07" Hg
Pressure 1018 hPa
Elevation 371
METAR KLZZ 212255Z AUTO 00000KT 10SM CLR 31/21 A3007 RMK AO2 LTG DSNT E SE AND NW T03060207
Observed Flight Rules
Aug-21 @ 22:55 UTC
(50 minutes ago)
VFR
Clouds
  • Clear skies
Temperature Dewpoint
31°C / 88°F 21°C / 70°F
Humidity Altimeter Pressure
55% 30.07" Hg 1018 hPa